Time;durP1;ratioP1;P1;durP2;ratioP2;P2;SDS_P1;SDS_P2;PMS_P1;PMS_P2;Temp;Humidity;BMP_temperature;BMP_pressure;BME280_temperature;BME280_humidity;BME280_pressure;Samples;Min_cycle;Max_cycle;Signal;HPM_P1;HPM_P2
2022/10/26 00:00:24;;;;;;;15.30;7.73;;;10.00;99.90;;;;;;5023325;28;20350;-70
2022/10/26 00:02:50;;;;;;;11.83;6.87;;;10.00;99.90;;;;;;5022299;28;20647;-70
2022/10/26 00:05:15;;;;;;;15.27;7.93;;;10.00;99.90;;;;;;5022901;28;20335;-70
2022/10/26 00:07:41;;;;;;;13.53;7.30;;;10.00;99.90;;;;;;5006433;28;20592;-70
2022/10/26 00:10:07;;;;;;;16.73;7.27;;;10.00;99.90;;;;;;5023269;28;20121;-70
2022/10/26 00:12:33;;;;;;;15.00;7.70;;;10.00;99.90;;;;;;5024406;28;20116;-70
2022/10/26 00:14:59;;;;;;;15.30;7.50;;;10.00;99.90;;;;;;5026954;28;20382;-70
2022/10/26 00:17:24;;;;;;;16.40;8.50;;;10.00;99.90;;;;;;5028257;28;20050;-70
2022/10/26 00:19:50;;;;;;;13.10;8.17;;;10.00;99.90;;;;;;5027842;28;20117;-70
2022/10/26 00:22:16;;;;;;;18.17;9.17;;;10.00;99.90;;;;;;5028870;28;20041;-70
2022/10/26 00:24:41;;;;;;;17.27;9.57;;;10.00;99.90;;;;;;5010224;28;20063;-70
2022/10/26 00:27:07;;;;;;;14.57;9.23;;;9.90;99.90;;;;;;5028684;28;20041;-70
2022/10/26 00:29:33;;;;;;;16.03;8.37;;;9.90;99.90;;;;;;5026601;28;20642;-70
2022/10/26 00:31:58;;;;;;;16.07;8.70;;;9.80;99.90;;;;;;5010658;28;20049;-70
2022/10/26 00:34:24;;;;;;;17.07;9.07;;;9.70;99.90;;;;;;5009296;28;20050;-70
2022/10/26 00:36:50;;;;;;;13.97;8.00;;;9.70;99.90;;;;;;5010726;28;20426;-70
2022/10/26 00:39:15;;;;;;;18.03;9.00;;;9.60;99.90;;;;;;5027456;28;20041;-70
2022/10/26 00:41:41;;;;;;;14.30;7.63;;;9.60;99.90;;;;;;5027025;28;20041;-70
2022/10/26 00:44:42;;;;;;;13.03;7.33;;;9.50;99.90;;;;;;5026221;28;20307;-70
2022/10/26 00:47:20;;;;;;;12.93;7.30;;;9.40;99.90;;;;;;5025935;28;20774;-70
2022/10/26 00:49:48;;;;;;;14.30;7.07;;;9.30;99.90;;;;;;5010407;28;20367;-70
2022/10/26 00:52:16;;;;;;;12.73;7.13;;;9.20;99.90;;;;;;5008197;28;20334;-70
2022/10/26 00:54:43;;;;;;;15.07;7.27;;;9.20;99.90;;;;;;5026251;28;20821;-71
2022/10/26 00:57:14;;;;;;;14.87;7.17;;;9.10;99.90;;;;;;5026596;28;20577;-71
2022/10/26 00:59:41;;;;;;;15.07;7.10;;;9.10;99.90;;;;;;5034666;28;20312;-71
2022/10/26 01:02:07;;;;;;;12.93;6.97;;;9.00;99.90;;;;;;5029283;28;20303;-71
2022/10/26 01:04:33;;;;;;;13.77;7.53;;;9.00;99.90;;;;;;5012521;28;20845;-71
2022/10/26 01:07:02;;;;;;;13.07;7.87;;;8.90;99.90;;;;;;4995237;28;20292;-71
2022/10/26 01:09:28;;;;;;;14.17;8.00;;;8.90;99.90;;;;;;5017657;28;20413;-70
2022/10/26 01:11:54;;;;;;;11.60;6.73;;;8.80;99.90;;;;;;5033504;28;20627;-70
2022/10/26 01:14:21;;;;;;;13.33;7.33;;;8.80;99.90;;;;;;5031409;28;20276;-70
2022/10/26 01:17:17;;;;;;;17.80;7.90;;;8.80;99.90;;;;;;5015900;28;20045;-70
2022/10/26 01:20:04;;;;;;;13.13;7.57;;;8.70;99.90;;;;;;5034216;28;20337;-70
2022/10/26 01:22:46;;;;;;;13.53;7.63;;;8.70;99.90;;;;;;5015485;28;20046;-70
2022/10/26 01:25:56;;;;;;;17.50;8.07;;;8.60;99.90;;;;;;5030898;28;20292;-70
2022/10/26 01:28:41;;;;;;;12.17;8.20;;;8.60;99.90;;;;;;5016866;28;20045;-71
2022/10/26 01:31:13;;;;;;;18.80;7.80;;;8.50;99.90;;;;;;5035107;28;20307;-70
2022/10/26 01:33:48;;;;;;;13.27;8.15;;;8.50;99.90;;;;;;5034361;28;20295;-70
2022/10/26 01:36:58;;;;;;;10.85;7.50;;;8.50;99.90;;;;;;5017261;28;20124;-70
2022/10/26 01:39:26;;;;;;;14.60;8.27;;;8.40;99.90;;;;;;5030731;28;20042;-70
2022/10/26 01:41:58;;;;;;;15.68;8.43;;;8.40;99.90;;;;;;5033540;28;20037;-70
2022/10/26 01:44:31;;;;;;;12.65;7.85;;;8.40;99.90;;;;;;5027257;28;20038;-70
2022/10/26 01:47:00;;;;;;;21.48;8.30;;;8.40;99.90;;;;;;5019573;28;20063;-71
2022/10/26 01:49:31;;;;;;;16.63;8.07;;;8.40;99.90;;;;;;5033159;28;20061;-70
2022/10/26 01:51:57;;;;;;;17.30;8.48;;;8.40;99.90;;;;;;5015569;28;20068;-70
2022/10/26 01:54:22;;;;;;;18.10;9.73;;;8.30;99.90;;;;;;5046881;28;20041;-70
2022/10/26 01:56:52;;;;;;;17.13;8.90;;;8.30;99.90;;;;;;5014879;28;20080;-70
2022/10/26 01:59:25;;;;;;;15.77;8.95;;;8.30;99.90;;;;;;5036514;28;20033;-70
2022/10/26 02:02:15;;;;;;;15.05;7.85;;;8.30;99.90;;;;;;5035708;28;20053;-70
2022/10/26 02:05:07;;;;;;;17.63;8.80;;;8.30;99.90;;;;;;5025794;28;20121;-70
2022/10/26 02:07:45;;;;;;;17.33;9.20;;;8.30;99.90;;;;;;5021746;28;20037;-70
2022/10/26 02:10:36;;;;;;;16.80;8.73;;;8.20;99.90;;;;;;5037398;28;20095;-70
2022/10/26 02:13:26;;;;;;;14.80;8.15;;;8.20;99.90;;;;;;5037882;28;20595;-70
2022/10/26 02:16:14;;;;;;;15.77;8.73;;;8.20;99.90;;;;;;5036521;28;20576;-70
2022/10/26 02:18:51;;;;;;;12.77;8.07;;;8.20;99.90;;;;;;5037838;28;20073;-70
2022/10/26 02:21:23;;;;;;;12.77;8.73;;;8.10;99.90;;;;;;5038458;28;20041;-70
2022/10/26 02:23:53;;;;;;;13.63;8.52;;;8.10;99.90;;;;;;5021427;28;20068;-70
2022/10/26 02:26:23;;;;;;;20.40;8.50;;;8.10;99.90;;;;;;5018866;28;20041;-70
2022/10/26 02:28:52;;;;;;;15.52;8.50;;;8.10;99.90;;;;;;5035289;28;20051;-70
2022/10/26 02:31:19;;;;;;;17.38;8.75;;;8.10;99.90;;;;;;5035401;28;20041;-71
2022/10/26 02:33:50;;;;;;;17.08;9.57;;;8.10;99.90;;;;;;5015858;28;20057;-70
2022/10/26 02:36:20;;;;;;;21.00;9.25;;;8.20;99.90;;;;;;5028945;28;20124;-70
2022/10/26 02:38:47;;;;;;;14.63;9.10;;;8.10;99.90;;;;;;5024108;28;20048;-70
2022/10/26 02:41:14;;;;;;;20.15;9.73;;;8.20;99.90;;;;;;5036803;28;20038;-70
2022/10/26 02:43:51;;;;;;;19.95;10.63;;;8.20;99.90;;;;;;5035933;28;20753;-70
2022/10/26 02:46:20;;;;;;;19.00;9.45;;;8.20;99.90;;;;;;5035157;28;20046;-71
2022/10/26 02:48:46;;;;;;;15.57;9.40;;;8.20;99.90;;;;;;5037950;28;20053;-71
2022/10/26 02:51:21;;;;;;;18.97;9.37;;;8.20;99.90;;;;;;5004568;28;20051;-70
2022/10/26 02:53:54;;;;;;;15.68;9.88;;;8.20;99.90;;;;;;5020477;28;20041;-70
2022/10/26 02:56:50;;;;;;;16.33;8.68;;;8.20;99.90;;;;;;5017438;28;20042;-70
2022/10/26 02:59:19;;;;;;;18.17;9.57;;;8.20;99.90;;;;;;5017920;28;20493;-71
2022/10/26 03:01:46;;;;;;;20.98;11.07;;;8.10;99.90;;;;;;5032996;28;20057;-71
2022/10/26 03:04:11;;;;;;;17.90;9.70;;;8.10;99.90;;;;;;5032224;28;20045;-71
2022/10/26 03:06:37;;;;;;;16.50;9.43;;;8.20;99.90;;;;;;5013808;28;20106;-71
2022/10/26 03:09:03;;;;;;;19.07;10.23;;;8.10;99.90;;;;;;5030322;28;20076;-70
2022/10/26 03:11:29;;;;;;;18.27;10.30;;;8.20;99.90;;;;;;5019395;28;20041;-71
2022/10/26 03:13:54;;;;;;;15.43;9.70;;;8.10;99.90;;;;;;5002414;28;20080;-71
2022/10/26 03:16:20;;;;;;;17.80;10.03;;;8.10;99.90;;;;;;5019843;28;20065;-71
2022/10/26 03:18:46;;;;;;;18.73;10.57;;;8.20;99.90;;;;;;5003946;28;20072;-70
2022/10/26 03:21:11;;;;;;;17.87;10.37;;;8.20;99.90;;;;;;5036859;28;20144;-71
2022/10/26 03:23:37;;;;;;;20.43;11.07;;;8.20;99.90;;;;;;5035374;28;20121;-71
2022/10/26 03:26:03;;;;;;;20.17;10.57;;;8.20;99.90;;;;;;5018088;28;20071;-71
2022/10/26 03:28:28;;;;;;;20.17;11.37;;;8.20;99.90;;;;;;5019926;28;20052;-71
2022/10/26 03:30:54;;;;;;;17.90;10.83;;;8.20;99.90;;;;;;5035132;28;20107;-70
2022/10/26 03:33:20;;;;;;;19.63;11.70;;;8.30;99.90;;;;;;5032837;28;20045;-71
2022/10/26 03:35:46;;;;;;;17.65;11.15;;;8.30;99.90;;;;;;5033297;28;20505;-71
2022/10/26 03:38:11;;;;;;;19.30;10.53;;;8.30;99.90;;;;;;5034890;28;20084;-71
2022/10/26 03:40:37;;;;;;;17.57;10.97;;;8.30;99.90;;;;;;5034506;28;20037;-71
2022/10/26 03:43:03;;;;;;;20.10;11.43;;;8.20;99.90;;;;;;5033313;28;20045;-71
2022/10/26 03:45:28;;;;;;;18.80;11.60;;;8.20;99.90;;;;;;5018093;28;20034;-70
2022/10/26 03:47:54;;;;;;;20.17;10.93;;;8.20;99.90;;;;;;5015472;28;20038;-70
2022/10/26 03:50:21;;;;;;;17.03;11.73;;;8.20;99.90;;;;;;5039227;28;20052;-70
2022/10/26 03:52:48;;;;;;;17.35;11.30;;;8.30;99.90;;;;;;5035950;28;20041;-71
2022/10/26 03:55:14;;;;;;;19.65;11.95;;;8.30;99.90;;;;;;5035102;28;20033;-71
2022/10/26 03:57:41;;;;;;;21.30;13.10;;;8.40;99.90;;;;;;5034656;28;20049;-71
2022/10/26 04:00:08;;;;;;;21.67;13.10;;;8.40;99.90;;;;;;5032573;28;20053;-71
2022/10/26 04:02:34;;;;;;;21.98;12.73;;;8.50;99.90;;;;;;5033780;28;20481;-71
2022/10/26 04:04:59;;;;;;;22.23;12.33;;;8.50;99.90;;;;;;5031827;28;20048;-70
2022/10/26 04:07:25;;;;;;;24.27;13.70;;;8.50;99.90;;;;;;5032514;28;20041;-71
2022/10/26 04:09:51;;;;;;;21.40;14.37;;;8.60;99.90;;;;;;5031908;28;20037;-71
2022/10/26 04:12:16;;;;;;;22.20;14.57;;;8.60;99.90;;;;;;5031699;28;20048;-71
2022/10/26 04:14:42;;;;;;;24.40;13.77;;;8.70;99.90;;;;;;5016382;28;20055;-71
2022/10/26 04:17:08;;;;;;;24.30;13.93;;;8.70;99.90;;;;;;5032262;28;20041;-71
2022/10/26 04:19:33;;;;;;;25.37;13.77;;;8.70;99.90;;;;;;5033645;28;20418;-71
2022/10/26 04:21:59;;;;;;;23.93;14.63;;;8.80;99.90;;;;;;5034036;28;20037;-71
2022/10/26 04:24:25;;;;;;;23.20;14.10;;;8.80;99.90;;;;;;5032186;28;20517;-71
2022/10/26 04:26:50;;;;;;;24.87;14.20;;;8.80;99.90;;;;;;5033595;28;20339;-71
2022/10/26 04:29:16;;;;;;;26.40;14.70;;;8.90;99.90;;;;;;5033610;28;20034;-70
2022/10/26 04:31:42;;;;;;;25.33;15.03;;;8.90;99.90;;;;;;5017340;28;20040;-71
2022/10/26 04:34:08;;;;;;;22.00;14.93;;;8.90;99.90;;;;;;4999923;28;20069;-71
2022/10/26 04:36:34;;;;;;;24.33;14.57;;;9.00;99.90;;;;;;5032559;28;20048;-71
2022/10/26 04:39:00;;;;;;;24.90;14.73;;;9.00;99.90;;;;;;5034600;28;20046;-70
2022/10/26 04:41:25;;;;;;;21.65;14.18;;;9.00;99.90;;;;;;5016597;28;20047;-71
2022/10/26 04:43:51;;;;;;;25.80;14.67;;;9.10;99.90;;;;;;5000718;28;20037;-71
2022/10/26 04:46:17;;;;;;;23.87;15.03;;;9.10;99.90;;;;;;5026776;28;20041;-71
2022/10/26 04:48:42;;;;;;;25.03;15.10;;;9.10;99.90;;;;;;5031862;28;20559;-71
2022/10/26 04:51:08;;;;;;;24.70;15.27;;;9.10;99.90;;;;;;5031567;28;20057;-71
2022/10/26 04:53:34;;;;;;;27.13;16.13;;;9.20;99.90;;;;;;4994864;28;20466;-70
2022/10/26 04:56:01;;;;;;;26.63;15.48;;;9.20;99.90;;;;;;5029926;28;20470;-70
2022/10/26 04:58:27;;;;;;;25.15;15.52;;;9.20;99.90;;;;;;4998544;28;20045;-71
2022/10/26 05:00:53;;;;;;;25.02;14.82;;;9.30;99.90;;;;;;5027902;28;20057;-71
2022/10/26 05:03:19;;;;;;;21.60;14.73;;;9.30;99.90;;;;;;5030396;28;20041;-71
2022/10/26 05:05:46;;;;;;;27.57;14.80;;;9.30;99.90;;;;;;5013789;28;20117;-71
2022/10/26 05:08:13;;;;;;;21.33;14.23;;;9.30;99.90;;;;;;5031197;28;20048;-71
2022/10/26 05:10:38;;;;;;;28.02;14.65;;;9.40;99.90;;;;;;5030464;28;20488;-71
2022/10/26 05:13:04;;;;;;;27.27;15.17;;;9.40;99.90;;;;;;5029401;28;20053;-71
2022/10/26 05:15:30;;;;;;;24.33;15.07;;;9.40;99.90;;;;;;5029844;28;20568;-71
2022/10/26 05:18:04;;;;;;;23.33;14.83;;;9.40;99.90;;;;;;5030909;28;20057;-70
2022/10/26 05:20:32;;;;;;;27.77;16.00;;;9.50;99.90;;;;;;5012955;28;20807;-70
2022/10/26 05:23:00;;;;;;;24.87;15.03;;;9.50;99.90;;;;;;5031000;28;20284;-70
2022/10/26 05:25:28;;;;;;;23.93;15.00;;;9.50;99.90;;;;;;5012992;28;20277;-70
2022/10/26 05:28:02;;;;;;;20.63;13.20;;;9.60;99.90;;;;;;5010795;28;20311;-71
2022/10/26 05:30:28;;;;;;;22.90;14.43;;;9.60;99.90;;;;;;5028706;28;20284;-71
2022/10/26 05:32:55;;;;;;;24.40;14.40;;;9.60;99.90;;;;;;5040501;28;20803;-70
2022/10/26 05:35:21;;;;;;;23.03;14.47;;;9.70;99.90;;;;;;5036639;28;20718;-70
2022/10/26 05:37:47;;;;;;;24.73;14.47;;;9.70;99.90;;;;;;5036821;28;20323;-70
2022/10/26 05:40:14;;;;;;;24.77;14.13;;;9.70;99.90;;;;;;5038128;28;20308;-70
2022/10/26 05:42:40;;;;;;;26.20;14.63;;;9.80;99.90;;;;;;5026623;28;20098;-70
2022/10/26 05:45:06;;;;;;;27.50;14.07;;;9.80;99.90;;;;;;5042060;28;20284;-71
2022/10/26 05:47:31;;;;;;;24.20;14.50;;;9.80;99.90;;;;;;5041911;28;20103;-70
2022/10/26 05:49:57;;;;;;;22.60;13.60;;;9.90;99.90;;;;;;5039220;28;20699;-70
2022/10/26 05:52:23;;;;;;;24.90;13.77;;;9.90;99.90;;;;;;5038483;28;20041;-70
2022/10/26 05:54:49;;;;;;;28.93;14.17;;;9.90;99.90;;;;;;5026280;28;20052;-70
2022/10/26 05:57:15;;;;;;;22.77;13.73;;;9.90;99.90;;;;;;5039252;28;20081;-70
2022/10/26 05:59:41;;;;;;;22.57;13.07;;;9.90;99.90;;;;;;5023805;28;20052;-70
2022/10/26 06:02:25;;;;;;;23.37;13.47;;;9.90;99.90;;;;;;5014108;28;20053;-70
2022/10/26 06:04:56;;;;;;;21.27;13.65;;;10.00;99.90;;;;;;5041697;28;20276;-70
2022/10/26 06:07:22;;;;;;;21.77;13.17;;;9.90;99.90;;;;;;5044910;28;20582;-70
2022/10/26 06:09:48;;;;;;;23.40;14.07;;;9.90;99.90;;;;;;5041637;28;20292;-70
2022/10/26 06:12:14;;;;;;;20.13;12.50;;;9.90;99.90;;;;;;5042784;28;20139;-70
2022/10/26 06:14:41;;;;;;;21.77;12.60;;;9.90;99.90;;;;;;5040664;28;20837;-70
2022/10/26 06:17:12;;;;;;;23.97;12.43;;;9.90;99.90;;;;;;5040861;28;20375;-70
2022/10/26 06:20:07;;;;;;;18.93;12.53;;;9.80;99.90;;;;;;5033675;28;20311;-70
2022/10/26 06:22:46;;;;;;;17.67;12.57;;;9.80;99.90;;;;;;5039192;28;20295;-70
2022/10/26 06:25:39;;;;;;;17.30;11.97;;;9.70;99.90;;;;;;5039375;28;20291;-70
2022/10/26 06:28:30;;;;;;;19.27;11.47;;;9.70;99.90;;;;;;5058033;28;20342;-70
2022/10/26 06:30:57;;;;;;;23.73;12.40;;;9.70;99.90;;;;;;5009124;28;20790;-70
2022/10/26 06:33:24;;;;;;;21.80;11.77;;;9.60;99.90;;;;;;5042238;28;20276;-70
2022/10/26 06:36:15;;;;;;;24.17;12.07;;;9.60;99.90;;;;;;5036573;28;20395;-72
2022/10/26 06:38:43;;;;;;;23.73;11.97;;;9.60;99.90;;;;;;5027295;28;20280;-71
2022/10/26 06:41:14;;;;;;;20.43;12.00;;;9.50;99.90;;;;;;5035520;28;20367;-72
2022/10/26 06:43:40;;;;;;;24.07;14.07;;;9.50;99.90;;;;;;5047670;28;20395;-71
2022/10/26 06:46:30;;;;;;;19.77;11.80;;;9.50;99.90;;;;;;5020401;28;20280;-73
2022/10/26 06:49:11;;;;;;;22.33;12.50;;;9.50;99.90;;;;;;5036062;28;20347;-72
2022/10/26 06:52:00;;;;;;;19.87;12.20;;;9.50;99.90;;;;;;5035870;28;20287;-73
2022/10/26 06:54:50;;;;;;;18.20;12.13;;;9.60;99.90;;;;;;5031878;28;20310;-72
2022/10/26 06:57:21;;;;;;;17.73;11.37;;;9.60;99.90;;;;;;5031832;28;20307;-73
2022/10/26 06:59:53;;;;;;;18.47;12.33;;;9.70;99.90;;;;;;5030399;28;20299;-72
2022/10/26 07:02:19;;;;;;;24.40;13.03;;;9.80;99.90;;;;;;5011064;28;20368;-71
2022/10/26 07:04:46;;;;;;;19.00;11.77;;;9.90;99.90;;;;;;5009991;28;20301;-71
2022/10/26 07:07:20;;;;;;;19.50;11.53;;;10.00;99.90;;;;;;5012338;28;20782;-72
2022/10/26 07:09:46;;;;;;;18.27;11.90;;;10.00;99.90;;;;;;4993385;28;20293;-72
2022/10/26 07:12:11;;;;;;;21.53;10.90;;;10.10;99.90;;;;;;4996686;28;20702;-72
2022/10/26 07:14:37;;;;;;;26.73;13.07;;;10.20;99.90;;;;;;4994748;28;20046;-72
2022/10/26 07:17:04;;;;;;;17.13;11.40;;;10.30;99.90;;;;;;5007717;28;20042;-71
2022/10/26 07:19:29;;;;;;;18.03;11.93;;;10.30;99.90;;;;;;5007516;28;20112;-72
2022/10/26 07:21:58;;;;;;;19.10;11.10;;;10.40;99.90;;;;;;5011151;28;20281;-72
2022/10/26 07:24:24;;;;;;;21.00;10.93;;;10.40;99.90;;;;;;5006488;28;20037;-71
2022/10/26 07:26:52;;;;;;;22.83;11.60;;;10.50;99.90;;;;;;5012273;28;20669;-72
2022/10/26 07:29:18;;;;;;;16.00;10.40;;;10.60;99.90;;;;;;4994563;28;20048;-72
2022/10/26 07:31:43;;;;;;;18.27;11.77;;;10.70;99.90;;;;;;5000114;28;20287;-72
2022/10/26 07:34:09;;;;;;;17.17;10.87;;;10.80;99.90;;;;;;5017709;28;20119;-72
2022/10/26 07:36:35;;;;;;;19.70;11.30;;;10.90;99.90;;;;;;4998739;28;20042;-72
2022/10/26 07:39:02;;;;;;;17.00;10.47;;;10.90;99.90;;;;;;5009745;28;20034;-72
2022/10/26 07:41:28;;;;;;;17.63;11.43;;;11.00;99.90;;;;;;4984400;28;20312;-72
2022/10/26 07:43:54;;;;;;;15.97;10.13;;;11.10;99.90;;;;;;5014916;28;20288;-72
2022/10/26 07:46:20;;;;;;;18.47;9.97;;;11.20;99.90;;;;;;5013154;28;20292;-73
2022/10/26 07:48:45;;;;;;;17.73;10.00;;;11.20;99.90;;;;;;4996093;28;20049;-71
2022/10/26 07:51:11;;;;;;;15.37;9.77;;;11.30;99.90;;;;;;5014480;28;20568;-72
2022/10/26 07:53:37;;;;;;;15.20;9.57;;;11.40;99.90;;;;;;5017478;28;20050;-72
2022/10/26 07:56:03;;;;;;;13.47;9.37;;;11.50;99.90;;;;;;4999991;28;20506;-72
2022/10/26 07:58:29;;;;;;;16.50;9.60;;;11.60;99.90;;;;;;5015366;28;20034;-72
2022/10/26 08:00:55;;;;;;;17.07;9.83;;;11.60;99.90;;;;;;5023328;28;20085;-72
2022/10/26 08:03:21;;;;;;;12.23;8.67;;;11.70;99.90;;;;;;5035276;28;20045;-73
2022/10/26 08:05:50;;;;;;;14.53;8.57;;;11.70;99.90;;;;;;5034682;28;20340;-72
2022/10/26 08:08:19;;;;;;;13.00;7.47;;;11.70;99.90;;;;;;5031679;28;20280;-72
2022/10/26 08:10:45;;;;;;;15.47;7.77;;;11.80;99.90;;;;;;5033427;28;20287;-74
2022/10/26 08:13:12;;;;;;;14.10;7.17;;;11.90;99.90;;;;;;5038622;28;20288;-72
2022/10/26 08:15:38;;;;;;;11.63;6.93;;;12.00;99.90;;;;;;5034109;28;20284;-72
2022/10/26 08:18:04;;;;;;;13.47;7.50;;;12.10;99.90;;;;;;5037854;28;20294;-72
2022/10/26 08:20:30;;;;;;;10.17;6.37;;;12.20;99.90;;;;;;5041290;28;20320;-72
2022/10/26 08:22:57;;;;;;;14.23;6.40;;;12.30;99.90;;;;;;5003035;28;20284;-72
2022/10/26 08:25:23;;;;;;;13.03;6.67;;;12.50;99.90;;;;;;5038425;28;20385;-72
2022/10/26 08:27:49;;;;;;;11.17;6.17;;;12.60;99.90;;;;;;5033779;28;20284;-73
2022/10/26 08:30:15;;;;;;;12.50;6.40;;;12.70;99.90;;;;;;5022296;28;20295;-72
2022/10/26 08:32:43;;;;;;;9.73;5.93;;;12.90;99.90;;;;;;5037511;28;20269;-72
2022/10/26 08:35:09;;;;;;;9.47;5.90;;;13.00;99.90;;;;;;5038616;28;20049;-73
2022/10/26 08:37:35;;;;;;;13.63;6.23;;;13.10;99.90;;;;;;5037548;28;20311;-73
2022/10/26 08:40:02;;;;;;;8.60;5.70;;;13.20;99.90;;;;;;5033623;28;20288;-72
2022/10/26 08:42:33;;;;;;;8.27;5.00;;;13.30;99.90;;;;;;5048768;28;20030;-72
2022/10/26 08:45:09;;;;;;;12.83;5.53;;;13.30;99.90;;;;;;5050222;28;20295;-72
2022/10/26 08:47:48;;;;;;;10.13;5.43;;;13.30;99.90;;;;;;5025144;28;20291;-72
2022/10/26 08:50:38;;;;;;;9.73;5.53;;;13.30;99.90;;;;;;5038245;28;20322;-72
2022/10/26 08:53:11;;;;;;;8.63;5.60;;;13.30;99.90;;;;;;5042027;28;20284;-72
2022/10/26 08:55:47;;;;;;;10.53;5.27;;;13.40;99.90;;;;;;5046963;28;20746;-72
2022/10/26 08:58:20;;;;;;;8.97;5.07;;;13.40;99.90;;;;;;5038717;28;20342;-72
2022/10/26 09:00:48;;;;;;;10.20;6.00;;;13.50;99.90;;;;;;5047785;28;20295;-72
2022/10/26 09:03:16;;;;;;;8.03;5.63;;;13.60;99.90;;;;;;5043236;28;20334;-72
2022/10/26 09:06:04;;;;;;;8.77;5.07;;;13.60;99.90;;;;;;5053997;28;20291;-72
2022/10/26 09:08:41;;;;;;;11.97;5.60;;;13.70;99.90;;;;;;5031946;28;20276;-72
2022/10/26 09:11:30;;;;;;;11.13;5.03;;;13.80;99.90;;;;;;5033883;28;20302;-72
2022/10/26 09:14:05;;;;;;;7.90;5.13;;;13.80;99.90;;;;;;5054446;28;20272;-72
2022/10/26 09:16:49;;;;;;;8.13;4.43;;;13.80;99.90;;;;;;5029019;28;20365;-72
2022/10/26 09:19:33;;;;;;;11.20;5.23;;;13.90;99.90;;;;;;5036845;28;20075;-72
2022/10/26 09:22:16;;;;;;;11.67;4.97;;;14.00;99.90;;;;;;5037101;28;20291;-72
2022/10/26 09:24:55;;;;;;;8.43;4.47;;;14.10;99.90;;;;;;5027385;28;20272;-72
2022/10/26 09:27:29;;;;;;;5.80;4.10;;;14.20;99.90;;;;;;5041099;28;20295;-72
2022/10/26 09:30:11;;;;;;;10.07;4.77;;;14.30;99.90;;;;;;5035438;28;20311;-72
2022/10/26 09:32:43;;;;;;;11.13;4.43;;;14.40;99.90;;;;;;5034870;28;20279;-72
2022/10/26 09:35:17;;;;;;;7.03;4.17;;;14.50;99.90;;;;;;5016819;28;20712;-72
2022/10/26 09:38:08;;;;;;;6.85;3.85;;;14.60;99.90;;;;;;5035566;28;20304;-72
2022/10/26 09:40:49;;;;;;;7.20;3.63;;;14.70;99.90;;;;;;5030411;28;20046;-72
2022/10/26 09:43:23;;;;;;;8.80;3.87;;;14.90;99.90;;;;;;5040631;28;20310;-72
2022/10/26 09:45:51;;;;;;;8.50;3.77;;;14.90;99.90;;;;;;5032159;28;20644;-72
2022/10/26 09:48:49;;;;;;;7.10;3.07;;;14.90;99.90;;;;;;5029792;28;20276;-72
2022/10/26 09:51:16;;;;;;;6.87;3.47;;;15.00;99.90;;;;;;5010348;28;20292;-72
2022/10/26 09:53:42;;;;;;;6.77;3.10;;;15.10;99.90;;;;;;5007110;28;20285;-72
2022/10/26 09:56:15;;;;;;;6.97;3.40;;;15.30;99.90;;;;;;5025733;28;20754;-72
2022/10/26 09:59:03;;;;;;;8.20;3.20;;;15.50;99.90;;;;;;5034072;28;20276;-73
2022/10/26 10:01:32;;;;;;;6.97;3.07;;;15.50;99.90;;;;;;5025496;28;20288;-71
2022/10/26 10:04:10;;;;;;;5.60;2.90;;;15.60;99.90;;;;;;5037245;28;21473;-72
2022/10/26 10:06:36;;;;;;;11.47;3.07;;;15.60;99.90;;;;;;5035731;28;20585;-72
2022/10/26 10:09:16;;;;;;;8.10;3.03;;;15.60;99.90;;;;;;5033044;28;20730;-71
2022/10/26 10:11:53;;;;;;;5.60;3.00;;;15.70;99.90;;;;;;5049992;28;20049;-72
2022/10/26 10:14:21;;;;;;;6.17;3.47;;;15.70;99.90;;;;;;5031612;28;20349;-72
2022/10/26 10:17:03;;;;;;;6.97;2.90;;;15.80;99.90;;;;;;5013974;28;20300;-72
2022/10/26 10:19:30;;;;;;;6.87;2.77;;;15.80;99.90;;;;;;5022129;28;20295;-72
2022/10/26 10:22:17;;;;;;;6.33;3.10;;;15.80;99.90;;;;;;5012718;28;20280;-72
2022/10/26 10:24:59;;;;;;;7.93;3.13;;;15.80;99.90;;;;;;5046924;28;20304;-72
2022/10/26 10:27:27;;;;;;;7.27;2.63;;;15.90;99.90;;;;;;5034163;28;20327;-72
2022/10/26 10:29:58;;;;;;;7.03;2.77;;;15.90;99.90;;;;;;5028821;28;20344;-72
2022/10/26 10:32:26;;;;;;;6.30;2.83;;;16.00;99.90;;;;;;5009442;28;20383;-72
2022/10/26 10:34:57;;;;;;;8.30;3.00;;;16.00;99.90;;;;;;5032630;28;20298;-72
2022/10/26 10:37:29;;;;;;;8.43;3.73;;;16.10;99.90;;;;;;5007124;28;20312;-72
2022/10/26 10:40:15;;;;;;;4.33;2.43;;;16.20;99.90;;;;;;5027021;28;20316;-72
2022/10/26 10:42:42;;;;;;;16.10;3.30;;;16.30;99.90;;;;;;5020457;28;20299;-72
2022/10/26 10:45:23;;;;;;;8.60;2.80;;;16.50;99.90;;;;;;5008842;28;20324;-72
2022/10/26 10:48:03;;;;;;;5.83;2.87;;;16.50;99.90;;;;;;5029432;28;20652;-73
2022/10/26 10:50:30;;;;;;;6.80;2.33;;;16.60;99.90;;;;;;5010876;28;20290;-73
2022/10/26 10:53:37;;;;;;;5.97;2.83;;;16.60;99.90;;;;;;5009630;28;20306;-73
2022/10/26 10:56:37;;;;;;;8.73;2.43;;;16.60;99.90;;;;;;5018009;28;20343;-73
2022/10/26 10:59:14;;;;;;;6.30;2.70;;;16.60;99.90;;;;;;5018327;28;20717;-73
2022/10/26 11:01:59;;;;;;;5.37;2.83;;;16.60;99.90;;;;;;5016362;28;20299;-73
2022/10/26 11:04:56;;;;;;;8.90;3.53;;;16.60;99.90;;;;;;5021505;28;20292;-73
2022/10/26 11:07:24;;;;;;;4.50;2.20;;;16.70;99.90;;;;;;4996198;28;20625;-73
2022/10/26 11:09:52;;;;;;;8.50;3.27;;;16.80;99.90;;;;;;5024607;28;20049;-72
2022/10/26 11:12:23;;;;;;;6.57;2.50;;;16.80;99.90;;;;;;5009112;28;20295;-73
2022/10/26 11:14:57;;;;;;;7.37;2.80;;;16.90;99.90;;;;;;5025012;28;20287;-73
2022/10/26 11:17:31;;;;;;;6.53;2.70;;;17.00;99.90;;;;;;5026428;28;20300;-73
2022/10/26 11:20:05;;;;;;;6.78;2.92;;;17.10;99.90;;;;;;5030663;28;20661;-73
2022/10/26 11:22:57;;;;;;;5.37;3.10;;;17.20;99.90;;;;;;5029703;28;20076;-73
2022/10/26 11:25:32;;;;;;;5.17;2.60;;;17.30;99.90;;;;;;5027607;28;20688;-73
2022/10/26 11:28:15;;;;;;;8.27;3.13;;;17.30;99.90;;;;;;5029515;28;20280;-73
2022/10/26 11:30:48;;;;;;;6.33;2.83;;;17.30;99.90;;;;;;5016191;28;20079;-74
2022/10/26 11:33:27;;;;;;;8.77;3.00;;;17.30;99.90;;;;;;5028036;28;20315;-72
2022/10/26 11:36:02;;;;;;;7.90;3.17;;;17.40;99.90;;;;;;5030443;28;20282;-73
2022/10/26 11:39:00;;;;;;;10.30;3.10;;;17.40;99.90;;;;;;5011333;28;20936;-72
2022/10/26 11:41:36;;;;;;;5.93;3.23;;;17.50;99.90;;;;;;5040494;28;20042;-72
2022/10/26 11:44:24;;;;;;;8.57;3.10;;;17.50;98.80;;;;;;5036516;28;20354;-72
2022/10/26 11:47:02;;;;;;;7.30;3.40;;;17.40;99.20;;;;;;5013307;28;20350;-72
2022/10/26 11:49:41;;;;;;;10.73;3.43;;;17.40;99.40;;;;;;5023871;28;20778;-73
2022/10/26 11:52:38;;;;;;;5.50;2.87;;;17.40;99.20;;;;;;5035780;28;20284;-72
2022/10/26 11:55:04;;;;;;;8.30;3.50;;;17.40;99.50;;;;;;5035272;28;20375;-72
2022/10/26 11:57:36;;;;;;;9.67;3.73;;;17.40;99.90;;;;;;5038254;28;20311;-72
2022/10/26 12:00:22;;;;;;;8.60;3.73;;;17.40;99.90;;;;;;5031371;28;20408;-73
2022/10/26 12:03:08;;;;;;;10.27;3.53;;;17.50;99.90;;;;;;5028213;28;20862;-72
2022/10/26 12:05:47;;;;;;;7.10;2.80;;;17.60;99.00;;;;;;5004551;28;20276;-73
2022/10/26 12:08:23;;;;;;;7.83;3.40;;;17.50;99.60;;;;;;5034931;28;20044;-73
2022/10/26 12:11:14;;;;;;;6.40;3.53;;;17.50;99.60;;;;;;5036353;28;20288;-73
2022/10/26 12:13:48;;;;;;;5.93;3.00;;;17.50;99.80;;;;;;5018213;28;20337;-73
2022/10/26 12:16:20;;;;;;;7.93;3.70;;;17.50;99.80;;;;;;5012528;28;20910;-73
2022/10/26 12:19:04;;;;;;;8.47;3.83;;;17.40;99.90;;;;;;5032736;28;20120;-73
2022/10/26 12:21:31;;;;;;;8.20;4.03;;;17.40;99.90;;;;;;5041054;28;20287;-73
2022/10/26 12:24:21;;;;;;;8.47;3.50;;;17.40;99.90;;;;;;5037030;28;20048;-73
2022/10/26 12:27:25;;;;;;;8.03;4.33;;;17.50;99.90;;;;;;5032275;28;20287;-73
2022/10/26 12:30:11;;;;;;;10.77;3.70;;;17.50;99.70;;;;;;5041595;28;20044;-72
2022/10/26 12:32:36;;;;;;;8.00;3.63;;;17.50;99.90;;;;;;5045639;28;20290;-73
2022/10/26 12:35:25;;;;;;;7.03;3.67;;;17.50;99.90;;;;;;5039967;28;20629;-73
2022/10/26 12:37:51;;;;;;;10.80;4.40;;;17.50;99.90;;;;;;5042177;28;20045;-73
2022/10/26 12:40:32;;;;;;;8.23;4.33;;;17.50;99.90;;;;;;5029976;28;20287;-73
2022/10/26 12:43:18;;;;;;;9.07;4.10;;;17.50;99.90;;;;;;5041095;28;20175;-74
2022/10/26 12:46:12;;;;;;;7.60;3.97;;;17.50;99.90;;;;;;5017679;28;20282;-72
2022/10/26 12:48:49;;;;;;;9.20;4.03;;;17.50;99.90;;;;;;5008619;28;20379;-73
2022/10/26 12:51:21;;;;;;;7.43;4.00;;;17.60;99.90;;;;;;5035798;28;20649;-73
2022/10/26 12:53:56;;;;;;;10.43;4.50;;;17.60;99.90;;;;;;5016409;28;20076;-73
2022/10/26 12:56:35;;;;;;;10.00;3.80;;;17.60;99.90;;;;;;5013051;28;20042;-72
2022/10/26 12:59:30;;;;;;;9.60;4.20;;;17.70;99.90;;;;;;5018408;28;20043;-74
2022/10/26 13:02:21;;;;;;;6.53;4.30;;;17.70;99.90;;;;;;5009681;28;20041;-72
2022/10/26 13:05:05;;;;;;;10.20;4.83;;;17.70;99.90;;;;;;5016061;28;20046;-73
2022/10/26 13:07:37;;;;;;;8.57;4.10;;;17.60;99.90;;;;;;5033621;28;20383;-72